sensor_id;sensor_type;location;lat;lon;timestamp;pressure;altitude;pressure_sealevel;temperature;humidity
55932;BME280;41837;55.700;37.984;2023-05-07T00:00:03;101134.66;;;-3.11;100.00
55932;BME280;41837;55.700;37.984;2023-05-07T00:02:36;101136.78;;;-3.23;100.00
55932;BME280;41837;55.700;37.984;2023-05-07T00:05:03;101141.84;;;-3.25;100.00
55932;BME280;41837;55.700;37.984;2023-05-07T00:07:32;101153.72;;;-3.27;100.00
55932;BME280;41837;55.700;37.984;2023-05-07T00:09:58;101152.63;;;-3.33;100.00
55932;BME280;41837;55.700;37.984;2023-05-07T00:12:24;101124.88;;;-3.47;100.00
55932;BME280;41837;55.700;37.984;2023-05-07T00:14:51;101159.94;;;-3.44;100.00
55932;BME280;41837;55.700;37.984;2023-05-07T00:17:17;101146.97;;;-3.49;100.00
55932;BME280;41837;55.700;37.984;2023-05-07T00:19:44;101141.63;;;-3.55;100.00
55932;BME280;41837;55.700;37.984;2023-05-07T00:22:10;101152.72;;;-3.54;100.00
55932;BME280;41837;55.700;37.984;2023-05-07T00:24:36;101161.22;;;-3.31;100.00
55932;BME280;41837;55.700;37.984;2023-05-07T00:27:02;101163.94;;;-3.27;100.00
55932;BME280;41837;55.700;37.984;2023-05-07T00:29:28;101146.59;;;-3.35;100.00
55932;BME280;41837;55.700;37.984;2023-05-07T00:31:55;101166.56;;;-3.25;100.00
55932;BME280;41837;55.700;37.984;2023-05-07T00:34:21;101167.16;;;-3.32;100.00
55932;BME280;41837;55.700;37.984;2023-05-07T00:36:48;101168.47;;;-3.44;100.00
55932;BME280;41837;55.700;37.984;2023-05-07T00:39:14;101147.97;;;-3.68;100.00
55932;BME280;41837;55.700;37.984;2023-05-07T00:41:40;101166.91;;;-3.63;100.00
55932;BME280;41837;55.700;37.984;2023-05-07T00:44:06;101151.16;;;-3.73;100.00
55932;BME280;41837;55.700;37.984;2023-05-07T00:46:33;101172.75;;;-3.65;100.00
55932;BME280;41837;55.700;37.984;2023-05-07T00:49:00;101173.66;;;-3.65;100.00
55932;BME280;41837;55.700;37.984;2023-05-07T00:51:27;101173.34;;;-3.72;100.00
55932;BME280;41837;55.700;37.984;2023-05-07T00:53:54;101167.94;;;-3.80;100.00
55932;BME280;41837;55.700;37.984;2023-05-07T00:56:21;101172.91;;;-3.85;100.00
55932;BME280;41837;55.700;37.984;2023-05-07T00:58:48;101164.91;;;-3.92;100.00
55932;BME280;41837;55.700;37.984;2023-05-07T01:01:15;101182.34;;;-3.82;100.00
55932;BME280;41837;55.700;37.984;2023-05-07T01:03:42;101164.19;;;-3.90;100.00
55932;BME280;41837;55.700;37.984;2023-05-07T01:06:10;101180.56;;;-3.85;100.00
55932;BME280;41837;55.700;37.984;2023-05-07T01:08:39;101181.34;;;-3.86;100.00
55932;BME280;41837;55.700;37.984;2023-05-07T01:11:07;101183.06;;;-3.86;100.00
55932;BME280;41837;55.700;37.984;2023-05-07T01:13:35;101170.22;;;-3.88;100.00
55932;BME280;41837;55.700;37.984;2023-05-07T01:16:03;101184.34;;;-3.75;100.00
55932;BME280;41837;55.700;37.984;2023-05-07T01:18:30;101186.00;;;-3.76;100.00
55932;BME280;41837;55.700;37.984;2023-05-07T01:20:58;101188.63;;;-3.74;100.00
55932;BME280;41837;55.700;37.984;2023-05-07T01:23:27;101186.13;;;-3.72;100.00
55932;BME280;41837;55.700;37.984;2023-05-07T01:25:54;101191.53;;;-3.65;100.00
55932;BME280;41837;55.700;37.984;2023-05-07T01:28:23;101165.50;;;-3.77;100.00
55932;BME280;41837;55.700;37.984;2023-05-07T01:30:53;101180.22;;;-3.71;100.00
55932;BME280;41837;55.700;37.984;2023-05-07T01:33:22;101176.63;;;-3.77;100.00
55932;BME280;41837;55.700;37.984;2023-05-07T01:35:52;101196.47;;;-3.69;100.00
55932;BME280;41837;55.700;37.984;2023-05-07T01:38:21;101193.91;;;-3.69;100.00
55932;BME280;41837;55.700;37.984;2023-05-07T01:40:48;101186.31;;;-3.68;100.00
55932;BME280;41837;55.700;37.984;2023-05-07T01:43:14;101196.66;;;-3.65;100.00
55932;BME280;41837;55.700;37.984;2023-05-07T01:45:41;101196.28;;;-3.51;100.00
55932;BME280;41837;55.700;37.984;2023-05-07T01:48:10;101196.72;;;-3.16;100.00
55932;BME280;41837;55.700;37.984;2023-05-07T01:50:37;101200.97;;;-3.17;100.00
55932;BME280;41837;55.700;37.984;2023-05-07T01:53:04;101205.06;;;-3.22;100.00
55932;BME280;41837;55.700;37.984;2023-05-07T01:55:30;101189.28;;;-3.33;100.00
55932;BME280;41837;55.700;37.984;2023-05-07T01:57:56;101202.13;;;-3.31;100.00
55932;BME280;41837;55.700;37.984;2023-05-07T02:00:23;101205.59;;;-3.31;100.00
55932;BME280;41837;55.700;37.984;2023-05-07T02:02:49;101179.06;;;-3.33;100.00
55932;BME280;41837;55.700;37.984;2023-05-07T02:05:25;101203.78;;;-2.08;100.00
55932;BME280;41837;55.700;37.984;2023-05-07T02:07:58;101190.69;;;-1.31;100.00
55932;BME280;41837;55.700;37.984;2023-05-07T02:10:27;101184.34;;;-0.48;100.00
55932;BME280;41837;55.700;37.984;2023-05-07T02:12:53;101181.38;;;0.44;100.00
55932;BME280;41837;55.700;37.984;2023-05-07T02:15:19;101181.41;;;0.88;100.00
55932;BME280;41837;55.700;37.984;2023-05-07T02:20:26;101183.44;;;1.54;100.00
55932;BME280;41837;55.700;37.984;2023-05-07T02:22:53;101176.59;;;2.11;99.94
55932;BME280;41837;55.700;37.984;2023-05-07T02:25:19;101171.63;;;2.24;98.37
55932;BME280;41837;55.700;37.984;2023-05-07T02:27:47;101184.34;;;2.76;93.87
55932;BME280;41837;55.700;37.984;2023-05-07T02:30:14;101163.06;;;2.96;92.16
55932;BME280;41837;55.700;37.984;2023-05-07T02:32:41;101163.44;;;3.34;89.69
55932;BME280;41837;55.700;37.984;2023-05-07T02:35:07;101177.78;;;3.05;88.66
55932;BME280;41837;55.700;37.984;2023-05-07T02:37:33;101167.41;;;3.02;87.55
55932;BME280;41837;55.700;37.984;2023-05-07T02:40:00;101174.16;;;2.89;86.53
55932;BME280;41837;55.700;37.984;2023-05-07T02:42:26;101180.16;;;3.73;86.26
55932;BME280;41837;55.700;37.984;2023-05-07T02:44:52;101188.47;;;4.66;82.62
55932;BME280;41837;55.700;37.984;2023-05-07T02:47:19;101188.44;;;4.54;76.49
55932;BME280;41837;55.700;37.984;2023-05-07T02:49:45;101181.66;;;4.90;75.68
55932;BME280;41837;55.700;37.984;2023-05-07T02:52:12;101186.69;;;4.54;73.92
55932;BME280;41837;55.700;37.984;2023-05-07T02:54:38;101193.53;;;4.40;75.90
55932;BME280;41837;55.700;37.984;2023-05-07T02:57:05;101195.66;;;3.72;78.10
55932;BME280;41837;55.700;37.984;2023-05-07T02:59:31;101192.00;;;4.88;75.00
55932;BME280;41837;55.700;37.984;2023-05-07T03:01:59;101187.47;;;4.39;76.11
55932;BME280;41837;55.700;37.984;2023-05-07T03:04:25;101157.19;;;4.27;77.29
55932;BME280;41837;55.700;37.984;2023-05-07T03:06:51;101199.75;;;4.74;75.62
55932;BME280;41837;55.700;37.984;2023-05-07T03:09:17;101203.09;;;4.58;74.24
55932;BME280;41837;55.700;37.984;2023-05-07T03:11:43;101199.78;;;4.86;74.55
55932;BME280;41837;55.700;37.984;2023-05-07T03:14:10;101202.22;;;4.46;74.73
55932;BME280;41837;55.700;37.984;2023-05-07T03:16:37;101204.97;;;4.85;72.18
55932;BME280;41837;55.700;37.984;2023-05-07T03:19:04;101200.78;;;5.35;70.50
55932;BME280;41837;55.700;37.984;2023-05-07T03:21:30;101216.28;;;5.09;71.70
55932;BME280;41837;55.700;37.984;2023-05-07T03:24:00;101204.25;;;5.51;70.08
55932;BME280;41837;55.700;37.984;2023-05-07T03:26:26;101219.69;;;4.92;71.81
55932;BME280;41837;55.700;37.984;2023-05-07T03:28:53;101222.28;;;5.00;72.34
55932;BME280;41837;55.700;37.984;2023-05-07T03:31:19;101224.06;;;5.13;70.73
55932;BME280;41837;55.700;37.984;2023-05-07T03:33:51;101231.84;;;5.22;69.66
55932;BME280;41837;55.700;37.984;2023-05-07T03:36:18;101225.00;;;5.35;68.60
55932;BME280;41837;55.700;37.984;2023-05-07T03:38:44;101194.69;;;5.13;70.14
55932;BME280;41837;55.700;37.984;2023-05-07T03:41:11;101227.63;;;5.68;69.88
55932;BME280;41837;55.700;37.984;2023-05-07T03:43:38;101225.06;;;6.22;66.72
55932;BME280;41837;55.700;37.984;2023-05-07T03:46:08;101215.53;;;5.93;65.08
55932;BME280;41837;55.700;37.984;2023-05-07T03:48:35;101207.75;;;6.08;65.52
55932;BME280;41837;55.700;37.984;2023-05-07T03:51:02;101217.78;;;7.19;61.66
55932;BME280;41837;55.700;37.984;2023-05-07T03:53:32;101229.28;;;6.58;62.06
55932;BME280;41837;55.700;37.984;2023-05-07T03:55:58;101218.97;;;6.37;61.44
55932;BME280;41837;55.700;37.984;2023-05-07T03:58:25;101234.56;;;6.32;61.12
55932;BME280;41837;55.700;37.984;2023-05-07T04:00:53;101229.81;;;7.39;59.04
55932;BME280;41837;55.700;37.984;2023-05-07T04:03:26;101234.31;;;7.09;59.10
55932;BME280;41837;55.700;37.984;2023-05-07T04:05:54;101215.50;;;7.97;58.50
55932;BME280;41837;55.700;37.984;2023-05-07T04:08:21;101228.91;;;7.41;58.56
55932;BME280;41837;55.700;37.984;2023-05-07T04:10:57;101235.94;;;7.30;58.88
55932;BME280;41837;55.700;37.984;2023-05-07T04:13:29;101234.06;;;7.52;57.23
55932;BME280;41837;55.700;37.984;2023-05-07T04:15:57;101235.06;;;8.44;53.54
55932;BME280;41837;55.700;37.984;2023-05-07T04:18:25;101228.31;;;8.21;53.12
55932;BME280;41837;55.700;37.984;2023-05-07T04:20:51;101229.94;;;8.33;52.84
55932;BME280;41837;55.700;37.984;2023-05-07T04:23:17;101233.88;;;8.74;52.79
55932;BME280;41837;55.700;37.984;2023-05-07T04:25:44;101247.22;;;8.40;52.96
55932;BME280;41837;55.700;37.984;2023-05-07T04:28:22;101239.94;;;7.79;54.11
55932;BME280;41837;55.700;37.984;2023-05-07T04:30:48;101246.69;;;8.05;53.17
55932;BME280;41837;55.700;37.984;2023-05-07T04:33:15;101244.75;;;9.07;50.82
55932;BME280;41837;55.700;37.984;2023-05-07T04:35:45;101235.09;;;9.15;48.69
55932;BME280;41837;55.700;37.984;2023-05-07T04:38:12;101239.38;;;9.18;50.65
55932;BME280;41837;55.700;37.984;2023-05-07T04:40:39;101245.66;;;9.05;51.66
55932;BME280;41837;55.700;37.984;2023-05-07T04:43:07;101248.56;;;8.80;48.99
55932;BME280;41837;55.700;37.984;2023-05-07T04:45:42;101254.06;;;9.27;49.32
55932;BME280;41837;55.700;37.984;2023-05-07T04:48:09;101263.63;;;8.52;49.87
55932;BME280;41837;55.700;37.984;2023-05-07T04:50:38;101251.50;;;9.24;48.99
55932;BME280;41837;55.700;37.984;2023-05-07T04:53:06;101253.31;;;9.19;48.24
55932;BME280;41837;55.700;37.984;2023-05-07T04:55:32;101249.25;;;9.60;48.45
55932;BME280;41837;55.700;37.984;2023-05-07T04:57:58;101256.50;;;9.97;47.10
55932;BME280;41837;55.700;37.984;2023-05-07T05:00:27;101233.97;;;9.33;47.74
55932;BME280;41837;55.700;37.984;2023-05-07T05:02:58;101249.22;;;9.63;46.05
55932;BME280;41837;55.700;37.984;2023-05-07T05:05:24;101247.97;;;9.26;46.15
55932;BME280;41837;55.700;37.984;2023-05-07T05:07:53;101246.50;;;10.23;43.34
55932;BME280;41837;55.700;37.984;2023-05-07T05:10:19;101240.81;;;9.41;45.26
55932;BME280;41837;55.700;37.984;2023-05-07T05:12:46;101249.34;;;8.87;46.57
55932;BME280;41837;55.700;37.984;2023-05-07T05:15:26;101243.00;;;9.08;46.85
55932;BME280;41837;55.700;37.984;2023-05-07T05:17:52;101237.06;;;10.13;44.07
55932;BME280;41837;55.700;37.984;2023-05-07T05:20:19;101255.59;;;10.52;43.57
55932;BME280;41837;55.700;37.984;2023-05-07T05:22:48;101253.47;;;9.67;44.35
55932;BME280;41837;55.700;37.984;2023-05-07T05:25:14;101257.94;;;9.59;45.50
55932;BME280;41837;55.700;37.984;2023-05-07T05:27:40;101259.50;;;9.72;43.69
55932;BME280;41837;55.700;37.984;2023-05-07T05:30:19;101250.84;;;10.21;43.33
55932;BME280;41837;55.700;37.984;2023-05-07T05:32:46;101258.75;;;10.70;42.03
55932;BME280;41837;55.700;37.984;2023-05-07T05:35:12;101251.66;;;10.25;43.18
55932;BME280;41837;55.700;37.984;2023-05-07T05:37:40;101250.97;;;10.15;43.58
55932;BME280;41837;55.700;37.984;2023-05-07T05:40:07;101268.09;;;10.81;41.71
55932;BME280;41837;55.700;37.984;2023-05-07T05:42:34;101259.88;;;10.05;42.45
55932;BME280;41837;55.700;37.984;2023-05-07T05:45:01;101263.91;;;10.73;41.98
55932;BME280;41837;55.700;37.984;2023-05-07T05:47:31;101269.31;;;10.63;41.29
55932;BME280;41837;55.700;37.984;2023-05-07T05:49:57;101264.56;;;10.82;41.21
55932;BME280;41837;55.700;37.984;2023-05-07T05:52:25;101276.81;;;10.35;40.66
55932;BME280;41837;55.700;37.984;2023-05-07T05:54:51;101270.56;;;9.89;41.59
55932;BME280;41837;55.700;37.984;2023-05-07T05:57:18;101271.28;;;9.98;40.30
55932;BME280;41837;55.700;37.984;2023-05-07T05:59:45;101253.03;;;10.49;39.09
55932;BME280;41837;55.700;37.984;2023-05-07T06:02:13;101274.13;;;8.47;41.79
55932;BME280;41837;55.700;37.984;2023-05-07T06:04:39;101271.66;;;8.27;43.67
55932;BME280;41837;55.700;37.984;2023-05-07T06:07:06;101267.38;;;6.81;46.13
55932;BME280;41837;55.700;37.984;2023-05-07T06:09:32;101284.19;;;8.83;42.20
55932;BME280;41837;55.700;37.984;2023-05-07T06:11:58;101290.72;;;9.18;42.33
55932;BME280;41837;55.700;37.984;2023-05-07T06:14:25;101252.56;;;7.00;44.97
55932;BME280;41837;55.700;37.984;2023-05-07T06:16:52;101294.25;;;6.57;45.35
55932;BME280;41837;55.700;37.984;2023-05-07T06:19:18;101295.38;;;7.95;45.22
55932;BME280;41837;55.700;37.984;2023-05-07T06:21:50;101284.84;;;9.64;41.99
55932;BME280;41837;55.700;37.984;2023-05-07T06:24:16;101286.31;;;10.86;40.26
55932;BME280;41837;55.700;37.984;2023-05-07T06:26:42;101269.81;;;10.36;41.13
55932;BME280;41837;55.700;37.984;2023-05-07T06:29:08;101286.69;;;10.15;41.20
55932;BME280;41837;55.700;37.984;2023-05-07T06:31:35;101291.56;;;9.82;41.45
55932;BME280;41837;55.700;37.984;2023-05-07T06:34:04;101277.53;;;9.89;42.10
55932;BME280;41837;55.700;37.984;2023-05-07T06:36:35;101283.84;;;9.74;41.08
55932;BME280;41837;55.700;37.984;2023-05-07T06:39:09;101277.25;;;10.06;39.82
55932;BME280;41837;55.700;37.984;2023-05-07T06:41:36;101280.88;;;10.50;39.63
55932;BME280;41837;55.700;37.984;2023-05-07T06:44:08;101281.75;;;10.51;38.89
55932;BME280;41837;55.700;37.984;2023-05-07T06:46:43;101272.28;;;9.89;39.57
55932;BME280;41837;55.700;37.984;2023-05-07T06:49:12;101276.09;;;10.72;39.24
55932;BME280;41837;55.700;37.984;2023-05-07T06:51:38;101282.25;;;9.64;38.99
55932;BME280;41837;55.700;37.984;2023-05-07T06:54:04;101288.41;;;9.60;39.05
55932;BME280;41837;55.700;37.984;2023-05-07T06:56:32;101282.91;;;10.36;36.69
55932;BME280;41837;55.700;37.984;2023-05-07T06:59:00;101279.16;;;9.96;37.05
55932;BME280;41837;55.700;37.984;2023-05-07T07:01:31;101290.22;;;10.12;37.21
55932;BME280;41837;55.700;37.984;2023-05-07T07:03:59;101270.97;;;11.11;36.53
55932;BME280;41837;55.700;37.984;2023-05-07T07:06:27;101284.59;;;10.85;35.96
55932;BME280;41837;55.700;37.984;2023-05-07T07:08:54;101276.66;;;9.88;37.02
55932;BME280;41837;55.700;37.984;2023-05-07T07:11:21;101271.34;;;8.64;38.43
55932;BME280;41837;55.700;37.984;2023-05-07T07:13:47;101278.78;;;10.18;38.72
55932;BME280;41837;55.700;37.984;2023-05-07T07:16:14;101273.59;;;10.16;36.71
55932;BME280;41837;55.700;37.984;2023-05-07T07:18:40;101279.56;;;9.68;36.42
55932;BME280;41837;55.700;37.984;2023-05-07T07:21:07;101279.53;;;9.71;38.71
55932;BME280;41837;55.700;37.984;2023-05-07T07:23:33;101287.75;;;10.57;36.63
55932;BME280;41837;55.700;37.984;2023-05-07T07:26:00;101272.25;;;10.92;35.72
55932;BME280;41837;55.700;37.984;2023-05-07T07:28:27;101272.56;;;9.72;36.34
55932;BME280;41837;55.700;37.984;2023-05-07T07:30:53;101277.03;;;9.00;36.38
55932;BME280;41837;55.700;37.984;2023-05-07T07:33:19;101267.66;;;10.59;35.86
55932;BME280;41837;55.700;37.984;2023-05-07T07:35:46;101276.81;;;10.82;34.94
55932;BME280;41837;55.700;37.984;2023-05-07T07:38:12;101271.97;;;10.60;35.88
55932;BME280;41837;55.700;37.984;2023-05-07T07:40:39;101282.66;;;10.48;35.07
55932;BME280;41837;55.700;37.984;2023-05-07T07:43:07;101262.78;;;8.51;35.87
55932;BME280;41837;55.700;37.984;2023-05-07T07:45:34;101274.28;;;9.73;36.00
55932;BME280;41837;55.700;37.984;2023-05-07T07:48:01;101266.22;;;10.88;33.46
55932;BME280;41837;55.700;37.984;2023-05-07T07:50:27;101264.97;;;10.62;34.56
55932;BME280;41837;55.700;37.984;2023-05-07T07:52:54;101260.78;;;10.01;36.83
55932;BME280;41837;55.700;37.984;2023-05-07T07:55:22;101275.91;;;9.18;37.46
55932;BME280;41837;55.700;37.984;2023-05-07T07:57:51;101275.50;;;8.81;38.90
55932;BME280;41837;55.700;37.984;2023-05-07T08:00:17;101270.50;;;7.54;38.32
55932;BME280;41837;55.700;37.984;2023-05-07T08:02:43;101263.66;;;7.31;38.04
55932;BME280;41837;55.700;37.984;2023-05-07T08:05:19;101276.72;;;7.26;38.57
55932;BME280;41837;55.700;37.984;2023-05-07T08:07:47;101273.56;;;8.98;37.44
55932;BME280;41837;55.700;37.984;2023-05-07T08:10:21;101272.13;;;9.44;37.46
55932;BME280;41837;55.700;37.984;2023-05-07T08:12:50;101266.13;;;8.66;36.66
55932;BME280;41837;55.700;37.984;2023-05-07T08:15:17;101265.78;;;8.03;38.30
55932;BME280;41837;55.700;37.984;2023-05-07T08:17:44;101269.59;;;7.59;38.02
55932;BME280;41837;55.700;37.984;2023-05-07T08:20:12;101255.03;;;7.27;38.36
55932;BME280;41837;55.700;37.984;2023-05-07T08:22:38;101265.25;;;7.57;37.48
55932;BME280;41837;55.700;37.984;2023-05-07T08:25:07;101273.84;;;7.73;38.21
55932;BME280;41837;55.700;37.984;2023-05-07T08:27:33;101281.53;;;7.91;37.90
55932;BME280;41837;55.700;37.984;2023-05-07T08:30:00;101269.97;;;9.07;35.83
55932;BME280;41837;55.700;37.984;2023-05-07T08:32:30;101263.91;;;9.06;34.86
55932;BME280;41837;55.700;37.984;2023-05-07T08:34:57;101198.78;;;8.99;35.99
55932;BME280;41837;55.700;37.984;2023-05-07T08:37:24;101247.53;;;9.57;36.76
55932;BME280;41837;55.700;37.984;2023-05-07T08:39:50;101263.16;;;8.07;37.55
55932;BME280;41837;55.700;37.984;2023-05-07T08:42:23;101273.28;;;7.18;36.03
55932;BME280;41837;55.700;37.984;2023-05-07T08:44:51;101249.47;;;7.84;36.30
55932;BME280;41837;55.700;37.984;2023-05-07T08:47:23;101264.78;;;9.05;37.45
55932;BME280;41837;55.700;37.984;2023-05-07T08:49:59;101267.34;;;8.23;35.38
55932;BME280;41837;55.700;37.984;2023-05-07T08:52:26;101263.88;;;8.26;36.25
55932;BME280;41837;55.700;37.984;2023-05-07T08:54:52;101250.41;;;8.69;36.82
55932;BME280;41837;55.700;37.984;2023-05-07T08:57:19;101263.84;;;8.27;36.93
55932;BME280;41837;55.700;37.984;2023-05-07T08:59:46;101244.28;;;7.77;36.43
55932;BME280;41837;55.700;37.984;2023-05-07T09:02:12;101260.91;;;8.64;34.97
55932;BME280;41837;55.700;37.984;2023-05-07T09:04:39;101265.38;;;7.38;36.38
55932;BME280;41837;55.700;37.984;2023-05-07T09:07:05;101260.22;;;7.23;38.22
55932;BME280;41837;55.700;37.984;2023-05-07T09:09:35;101271.13;;;7.88;35.97
55932;BME280;41837;55.700;37.984;2023-05-07T09:12:04;101262.16;;;6.78;36.45
55932;BME280;41837;55.700;37.984;2023-05-07T09:14:32;101274.28;;;6.80;36.83
55932;BME280;41837;55.700;37.984;2023-05-07T09:17:00;101259.28;;;7.39;36.58
55932;BME280;41837;55.700;37.984;2023-05-07T09:19:27;101270.28;;;7.83;37.38
55932;BME280;41837;55.700;37.984;2023-05-07T09:22:02;101264.56;;;7.32;37.85
55932;BME280;41837;55.700;37.984;2023-05-07T09:24:37;101264.56;;;7.25;38.36
55932;BME280;41837;55.700;37.984;2023-05-07T09:27:07;101258.44;;;7.34;38.69
55932;BME280;41837;55.700;37.984;2023-05-07T09:29:36;101258.22;;;7.74;37.65
55932;BME280;41837;55.700;37.984;2023-05-07T09:32:08;101261.22;;;8.32;37.34
55932;BME280;41837;55.700;37.984;2023-05-07T09:34:35;101251.38;;;8.60;36.34
55932;BME280;41837;55.700;37.984;2023-05-07T09:37:04;101253.91;;;7.69;37.20
55932;BME280;41837;55.700;37.984;2023-05-07T09:39:57;101243.06;;;6.85;37.86
55932;BME280;41837;55.700;37.984;2023-05-07T09:42:26;101258.81;;;8.07;37.29
55932;BME280;41837;55.700;37.984;2023-05-07T09:44:56;101240.75;;;8.78;37.98
55932;BME280;41837;55.700;37.984;2023-05-07T09:47:30;101239.06;;;8.76;36.06
55932;BME280;41837;55.700;37.984;2023-05-07T09:49:59;101241.66;;;9.44;35.69
55932;BME280;41837;55.700;37.984;2023-05-07T09:52:30;101252.84;;;10.07;35.99
55932;BME280;41837;55.700;37.984;2023-05-07T09:55:02;101242.50;;;10.01;33.59
55932;BME280;41837;55.700;37.984;2023-05-07T09:57:32;101243.78;;;9.75;34.82
55932;BME280;41837;55.700;37.984;2023-05-07T10:00:04;101251.03;;;8.01;34.95
55932;BME280;41837;55.700;37.984;2023-05-07T10:02:49;101243.44;;;7.78;37.26
55932;BME280;41837;55.700;37.984;2023-05-07T10:05:22;101246.16;;;7.59;36.59
55932;BME280;41837;55.700;37.984;2023-05-07T10:07:50;101251.84;;;8.11;36.83
55932;BME280;41837;55.700;37.984;2023-05-07T10:10:17;101245.75;;;8.15;36.77
55932;BME280;41837;55.700;37.984;2023-05-07T10:12:47;101252.31;;;7.44;36.77
55932;BME280;41837;55.700;37.984;2023-05-07T10:15:19;101229.34;;;6.41;37.54
55932;BME280;41837;55.700;37.984;2023-05-07T10:17:51;101252.72;;;6.47;37.60
55932;BME280;41837;55.700;37.984;2023-05-07T10:20:20;101233.84;;;7.84;35.63
55932;BME280;41837;55.700;37.984;2023-05-07T10:22:48;101245.50;;;8.43;34.81
55932;BME280;41837;55.700;37.984;2023-05-07T10:25:25;101240.34;;;7.17;35.85
55932;BME280;41837;55.700;37.984;2023-05-07T10:27:55;101239.56;;;7.00;37.40
55932;BME280;41837;55.700;37.984;2023-05-07T10:32:56;101247.56;;;6.35;38.44
55932;BME280;41837;55.700;37.984;2023-05-07T10:35:38;101239.69;;;6.57;38.11
55932;BME280;41837;55.700;37.984;2023-05-07T10:38:07;101244.81;;;6.84;38.48
55932;BME280;41837;55.700;37.984;2023-05-07T10:40:36;101243.00;;;7.00;38.36
55932;BME280;41837;55.700;37.984;2023-05-07T10:43:04;101246.44;;;7.10;38.61
55932;BME280;41837;55.700;37.984;2023-05-07T10:45:37;101243.13;;;6.72;37.59
55932;BME280;41837;55.700;37.984;2023-05-07T10:48:15;101233.63;;;6.62;37.53
55932;BME280;41837;55.700;37.984;2023-05-07T10:50:47;101244.03;;;6.64;38.45
55932;BME280;41837;55.700;37.984;2023-05-07T11:04:28;101253.97;;;8.63;36.17
55932;BME280;41837;55.700;37.984;2023-05-07T11:15:36;101241.66;;;7.83;36.81
55932;BME280;41837;55.700;37.984;2023-05-07T11:18:10;101249.38;;;7.94;36.30
55932;BME280;41837;55.700;37.984;2023-05-07T11:20:46;101231.84;;;8.13;35.60
55932;BME280;41837;55.700;37.984;2023-05-07T11:26:10;101238.38;;;9.86;35.58
55932;BME280;41837;55.700;37.984;2023-05-07T11:28:42;101241.28;;;9.08;33.87
55932;BME280;41837;55.700;37.984;2023-05-07T11:31:10;101243.34;;;8.80;34.85
55932;BME280;41837;55.700;37.984;2023-05-07T11:33:39;101237.34;;;8.73;35.05
55932;BME280;41837;55.700;37.984;2023-05-07T11:36:09;101238.06;;;7.98;35.49
55932;BME280;41837;55.700;37.984;2023-05-07T11:38:42;101247.38;;;8.24;36.24
55932;BME280;41837;55.700;37.984;2023-05-07T11:41:08;101224.63;;;8.39;36.09
55932;BME280;41837;55.700;37.984;2023-05-07T11:43:35;101239.72;;;8.93;37.08
55932;BME280;41837;55.700;37.984;2023-05-07T11:46:09;101244.72;;;9.71;36.42
55932;BME280;41837;55.700;37.984;2023-05-07T11:48:36;101236.69;;;9.85;34.13
55932;BME280;41837;55.700;37.984;2023-05-07T11:51:04;101235.41;;;9.53;32.68
55932;BME280;41837;55.700;37.984;2023-05-07T11:53:40;101229.13;;;10.19;34.34
55932;BME280;41837;55.700;37.984;2023-05-07T11:56:08;101239.91;;;9.43;32.64
55932;BME280;41837;55.700;37.984;2023-05-07T11:58:34;101239.31;;;9.83;33.78
55932;BME280;41837;55.700;37.984;2023-05-07T12:01:00;101216.81;;;9.75;33.45
55932;BME280;41837;55.700;37.984;2023-05-07T12:03:27;101252.19;;;9.94;35.18
55932;BME280;41837;55.700;37.984;2023-05-07T12:05:53;101241.66;;;9.99;33.82
55932;BME280;41837;55.700;37.984;2023-05-07T12:08:21;101240.66;;;10.07;34.52
55932;BME280;41837;55.700;37.984;2023-05-07T12:10:49;101236.34;;;9.50;34.31
55932;BME280;41837;55.700;37.984;2023-05-07T12:13:20;101241.38;;;8.99;34.92
55932;BME280;41837;55.700;37.984;2023-05-07T12:15:54;101232.22;;;8.67;34.63
55932;BME280;41837;55.700;37.984;2023-05-07T12:18:22;101231.53;;;8.48;35.39
55932;BME280;41837;55.700;37.984;2023-05-07T12:20:49;101239.41;;;8.42;34.57
55932;BME280;41837;55.700;37.984;2023-05-07T12:23:16;101229.19;;;8.17;35.06
55932;BME280;41837;55.700;37.984;2023-05-07T12:25:43;101239.06;;;7.81;35.68
55932;BME280;41837;55.700;37.984;2023-05-07T12:28:15;101243.56;;;7.56;35.86
55932;BME280;41837;55.700;37.984;2023-05-07T12:30:43;101236.97;;;6.97;37.14
55932;BME280;41837;55.700;37.984;2023-05-07T12:33:10;101247.38;;;6.90;36.74
55932;BME280;41837;55.700;37.984;2023-05-07T12:35:39;101245.59;;;7.02;37.21
55932;BME280;41837;55.700;37.984;2023-05-07T12:38:14;101252.56;;;7.03;38.94
55932;BME280;41837;55.700;37.984;2023-05-07T12:40:41;101244.66;;;7.20;38.32
55932;BME280;41837;55.700;37.984;2023-05-07T12:43:21;101247.19;;;7.38;37.72
55932;BME280;41837;55.700;37.984;2023-05-07T12:45:49;101245.59;;;7.09;38.01
55932;BME280;41837;55.700;37.984;2023-05-07T12:48:16;101243.84;;;7.13;38.28
55932;BME280;41837;55.700;37.984;2023-05-07T12:50:42;101233.25;;;7.47;40.53
55932;BME280;41837;55.700;37.984;2023-05-07T12:53:11;101228.38;;;8.11;39.69
55932;BME280;41837;55.700;37.984;2023-05-07T12:55:45;101224.84;;;8.18;37.57
55932;BME280;41837;55.700;37.984;2023-05-07T12:58:33;101221.63;;;7.94;37.03
55932;BME280;41837;55.700;37.984;2023-05-07T13:01:05;101225.22;;;7.76;37.96
55932;BME280;41837;55.700;37.984;2023-05-07T13:03:34;101220.94;;;7.68;38.46
55932;BME280;41837;55.700;37.984;2023-05-07T13:06:02;101222.50;;;7.90;37.80
55932;BME280;41837;55.700;37.984;2023-05-07T13:08:32;101208.50;;;8.00;37.03
55932;BME280;41837;55.700;37.984;2023-05-07T13:10:59;101212.31;;;7.59;36.85
55932;BME280;41837;55.700;37.984;2023-05-07T13:13:36;101214.19;;;7.40;37.22
55932;BME280;41837;55.700;37.984;2023-05-07T13:16:04;101229.72;;;7.53;38.01
55932;BME280;41837;55.700;37.984;2023-05-07T13:18:32;101229.69;;;7.57;37.87